createdAt,value
2018-06-16T00:02:13.528Z,19.20
2018-06-16T00:04:42.187Z,19.20
2018-06-16T00:07:10.811Z,19.10
2018-06-16T00:09:39.462Z,19.10
2018-06-16T00:12:08.110Z,19.00
2018-06-16T00:14:36.705Z,19.00
2018-06-16T00:17:05.482Z,18.90
2018-06-16T00:19:34.207Z,18.90
2018-06-16T00:22:02.795Z,18.90
2018-06-16T00:24:31.319Z,18.80
2018-06-16T00:27:00.088Z,18.70
2018-06-16T00:29:28.675Z,18.60
2018-06-16T00:31:57.275Z,18.50
2018-06-16T00:34:25.816Z,18.50
2018-06-16T00:36:54.560Z,18.40
2018-06-16T00:39:23.284Z,18.30
2018-06-16T00:41:52.067Z,18.20
2018-06-16T00:44:21.048Z,18.20
2018-06-16T00:46:49.710Z,18.10
2018-06-16T00:49:18.250Z,18.10
2018-06-16T00:51:46.891Z,18.00
2018-06-16T00:54:15.561Z,18.00
2018-06-16T00:56:45.634Z,17.90
2018-06-16T00:59:14.208Z,17.80
2018-06-16T01:01:42.704Z,17.80
2018-06-16T01:04:11.221Z,17.70
2018-06-16T01:06:39.819Z,17.70
2018-06-16T01:09:08.516Z,17.60
2018-06-16T01:11:37.173Z,17.60
2018-06-16T01:14:06.011Z,17.60
2018-06-16T01:16:34.595Z,17.50
2018-06-16T01:19:03.268Z,17.50
2018-06-16T01:21:31.790Z,17.40
2018-06-16T01:24:00.257Z,17.40
2018-06-16T01:26:28.848Z,17.40
2018-06-16T01:28:57.359Z,17.30
2018-06-16T01:31:26.133Z,17.30
2018-06-16T01:33:54.948Z,17.20
2018-06-16T01:36:24.010Z,17.20
2018-06-16T01:38:52.635Z,17.20
2018-06-16T01:41:21.332Z,17.20
2018-06-16T01:43:49.940Z,17.20
2018-06-16T01:46:18.693Z,17.20
2018-06-16T01:48:47.462Z,17.20
2018-06-16T01:51:16.016Z,17.20
2018-06-16T01:53:44.786Z,17.20
2018-06-16T01:56:13.462Z,17.20
2018-06-16T01:58:42.138Z,17.20
2018-06-16T02:01:10.890Z,17.20
2018-06-16T02:03:39.781Z,17.20
2018-06-16T02:06:08.429Z,17.20
2018-06-16T02:08:36.958Z,17.20
2018-06-16T02:11:05.732Z,17.30
2018-06-16T02:13:34.268Z,17.30
2018-06-16T02:16:03.069Z,17.30
2018-06-16T02:20:59.872Z,17.30
2018-06-16T02:23:28.464Z,17.40
2018-06-16T02:25:57.019Z,17.40
2018-06-16T02:28:25.625Z,17.40
2018-06-16T02:30:54.187Z,17.40
2018-06-16T02:33:22.703Z,17.40
2018-06-16T02:35:51.446Z,17.40
2018-06-16T02:38:20.109Z,17.50
2018-06-16T02:40:48.800Z,17.50
2018-06-16T02:43:17.396Z,17.60
2018-06-16T02:45:45.950Z,17.60
2018-06-16T02:48:14.539Z,17.70
2018-06-16T02:50:43.139Z,17.70
2018-06-16T02:53:11.705Z,17.70
2018-06-16T02:55:40.218Z,17.70
2018-06-16T02:58:08.837Z,17.70
2018-06-16T03:00:37.387Z,17.70
2018-06-16T03:03:05.936Z,17.70
2018-06-16T03:05:34.570Z,17.70
2018-06-16T03:08:03.333Z,17.70
2018-06-16T03:10:32.016Z,17.70
2018-06-16T03:13:00.589Z,17.80
2018-06-16T03:15:29.463Z,17.80
2018-06-16T03:17:57.984Z,17.80
2018-06-16T03:20:26.530Z,17.80
2018-06-16T03:22:55.104Z,17.80
2018-06-16T03:25:23.750Z,17.80
2018-06-16T03:27:52.308Z,17.70
2018-06-16T03:30:21.259Z,17.70
2018-06-16T03:32:50.100Z,17.60
2018-06-16T03:35:18.867Z,17.60
2018-06-16T03:37:47.482Z,17.60
2018-06-16T03:40:16.308Z,17.50
2018-06-16T03:42:44.979Z,17.60
2018-06-16T03:45:13.681Z,17.50
2018-06-16T03:47:42.262Z,17.60
2018-06-16T03:50:10.888Z,17.60
2018-06-16T03:52:39.798Z,17.50
2018-06-16T03:55:08.561Z,17.60
2018-06-16T03:57:37.271Z,17.60
2018-06-16T04:00:06.112Z,17.60
2018-06-16T04:02:34.795Z,17.60
2018-06-16T04:05:03.483Z,17.60
2018-06-16T04:07:32.074Z,17.70
2018-06-16T04:10:00.759Z,17.70
2018-06-16T04:12:29.532Z,17.70
2018-06-16T04:14:58.230Z,17.80
2018-06-16T04:17:26.903Z,17.90
2018-06-16T04:22:24.119Z,18.10
2018-06-16T04:24:52.972Z,18.20
2018-06-16T04:27:21.604Z,18.40
2018-06-16T04:29:50.175Z,18.60
2018-06-16T04:32:18.700Z,18.80
2018-06-16T04:34:47.223Z,18.90
2018-06-16T04:37:15.798Z,19.00
2018-06-16T04:39:44.339Z,19.30
2018-06-16T04:42:12.889Z,19.60
2018-06-16T04:44:41.491Z,19.80
2018-06-16T04:47:10.070Z,20.10
2018-06-16T04:49:38.610Z,20.10
2018-06-16T04:52:07.143Z,20.20
2018-06-16T04:54:35.782Z,20.20
2018-06-16T04:57:04.441Z,20.30
2018-06-16T04:59:32.982Z,20.30
2018-06-16T05:02:01.605Z,20.50
2018-06-16T05:04:30.175Z,20.60
2018-06-16T05:06:58.776Z,20.70
2018-06-16T05:09:27.279Z,20.90
2018-06-16T05:11:55.791Z,21.10
2018-06-16T05:14:24.315Z,21.40
2018-06-16T05:16:52.904Z,21.70
2018-06-16T05:19:21.442Z,22.10
2018-06-16T05:21:50.090Z,22.30
2018-06-16T05:24:18.612Z,22.80
2018-06-16T05:26:47.148Z,23.10
2018-06-16T05:29:15.731Z,23.20
2018-06-16T05:31:44.344Z,23.40
2018-06-16T05:34:12.899Z,23.30
2018-06-16T05:36:41.423Z,23.20
2018-06-16T05:39:10.850Z,23.10
2018-06-16T05:41:39.546Z,23.10
2018-06-16T05:44:08.127Z,23.00
2018-06-16T05:46:37.101Z,23.00
2018-06-16T05:49:06.056Z,23.20
2018-06-16T05:51:34.538Z,23.20
2018-06-16T05:54:03.129Z,23.30
2018-06-16T05:56:31.630Z,23.40
2018-06-16T05:59:00.188Z,23.60
2018-06-16T06:01:28.704Z,23.80
2018-06-16T06:03:57.305Z,23.80
2018-06-16T06:06:25.893Z,23.50
2018-06-16T06:08:54.518Z,23.60
2018-06-16T06:11:23.011Z,24.00
2018-06-16T06:13:51.636Z,25.30
2018-06-16T06:16:20.158Z,27.00
2018-06-16T06:18:48.702Z,28.10
2018-06-16T06:21:17.406Z,28.70
2018-06-16T06:23:45.931Z,29.00
2018-06-16T06:26:14.491Z,29.20
2018-06-16T06:28:43.066Z,28.70
2018-06-16T06:31:11.615Z,28.80
2018-06-16T06:36:08.275Z,29.00
2018-06-16T06:38:36.794Z,29.50
2018-06-16T06:41:05.605Z,30.10
2018-06-16T06:43:34.176Z,30.70
2018-06-16T06:46:02.863Z,30.90
2018-06-16T06:48:31.517Z,31.10
2018-06-16T06:51:00.196Z,31.50
2018-06-16T06:53:28.934Z,31.30
2018-06-16T06:55:57.612Z,31.00
2018-06-16T06:58:26.142Z,30.30
2018-06-16T07:00:54.780Z,30.00
2018-06-16T07:03:23.250Z,29.00
2018-06-16T07:05:51.946Z,28.30
2018-06-16T07:08:20.507Z,27.70
2018-06-16T07:10:49.057Z,27.70
2018-06-16T07:13:17.627Z,28.10
2018-06-16T07:15:46.263Z,28.00
2018-06-16T07:18:14.759Z,28.10
2018-06-16T07:20:43.294Z,28.00
2018-06-16T07:23:11.878Z,28.00
2018-06-16T07:25:40.452Z,27.90
2018-06-16T07:28:09.014Z,27.80
2018-06-16T07:30:37.586Z,27.70
2018-06-16T07:33:06.243Z,27.50
2018-06-16T07:35:34.842Z,27.50
2018-06-16T07:38:03.451Z,28.20
2018-06-16T07:40:32.016Z,29.20
2018-06-16T07:43:00.518Z,30.10
2018-06-16T07:45:29.098Z,31.00
2018-06-16T07:47:57.683Z,32.00
2018-06-16T07:52:54.398Z,33.40
2018-06-16T07:55:22.903Z,33.80
2018-06-16T07:57:51.464Z,33.70
2018-06-16T08:00:20.139Z,34.20
2018-06-16T08:02:48.765Z,32.20
2018-06-16T08:05:17.343Z,32.00
2018-06-16T08:10:15.088Z,33.20
2018-06-16T08:12:43.675Z,34.20
2018-06-16T08:15:12.134Z,34.80
2018-06-16T08:17:40.634Z,33.40
2018-06-16T08:20:09.132Z,31.90
2018-06-16T08:22:37.651Z,31.30
2018-06-16T08:25:06.369Z,30.60
2018-06-16T08:27:34.926Z,30.50
2018-06-16T08:30:03.778Z,30.60
2018-06-16T08:32:32.536Z,31.60
2018-06-16T08:35:01.122Z,31.60
2018-06-16T08:37:29.693Z,30.90
2018-06-16T08:39:58.287Z,30.10
2018-06-16T08:42:26.847Z,29.90
2018-06-16T08:44:55.386Z,30.40
2018-06-16T08:47:23.907Z,30.10
2018-06-16T08:49:52.462Z,29.70
2018-06-16T08:52:20.947Z,29.20
2018-06-16T08:54:49.668Z,29.10
2018-06-16T08:57:18.244Z,28.80
2018-06-16T08:59:46.799Z,29.00
2018-06-16T09:02:15.309Z,28.60
2018-06-16T09:04:43.835Z,28.50
2018-06-16T09:07:12.426Z,28.70
2018-06-16T09:09:41.007Z,28.70
2018-06-16T09:12:09.580Z,29.00
2018-06-16T09:14:38.368Z,28.60
2018-06-16T09:17:07.066Z,28.50
2018-06-16T09:19:35.630Z,28.30
2018-06-16T09:22:04.160Z,28.60
2018-06-16T09:24:32.727Z,28.50
2018-06-16T09:27:01.397Z,28.10
2018-06-16T09:29:29.895Z,28.50
2018-06-16T09:31:58.483Z,29.00
2018-06-16T09:34:26.959Z,29.20
2018-06-16T09:36:55.534Z,29.20
2018-06-16T09:41:52.332Z,29.50
2018-06-16T09:44:20.820Z,30.00
2018-06-16T09:46:49.379Z,29.90
2018-06-16T09:49:17.866Z,29.80
2018-06-16T09:51:46.359Z,30.00
2018-06-16T09:54:14.882Z,30.20
2018-06-16T09:56:43.444Z,29.70
2018-06-16T09:59:12.004Z,30.00
2018-06-16T10:01:40.584Z,29.80
2018-06-16T10:04:09.203Z,29.70
2018-06-16T10:06:37.782Z,28.90
2018-06-16T10:09:08.071Z,28.60
2018-06-16T10:11:36.714Z,28.40
2018-06-16T10:16:33.987Z,27.60
2018-06-16T10:19:02.677Z,27.60
2018-06-16T10:21:31.202Z,27.50
2018-06-16T10:23:59.779Z,27.20
2018-06-16T10:26:28.284Z,27.50
2018-06-16T10:28:57.006Z,27.60
2018-06-16T10:31:25.494Z,27.60
2018-06-16T10:36:22.320Z,27.80
2018-06-16T10:38:50.808Z,27.90
2018-06-16T10:41:19.368Z,27.70
2018-06-16T10:43:48.083Z,28.00
2018-06-16T10:48:44.946Z,28.00
2018-06-16T10:51:13.699Z,28.30
2018-06-16T10:53:42.441Z,28.40
2018-06-16T10:56:11.053Z,28.80
2018-06-16T10:58:39.639Z,28.80
2018-06-16T11:01:08.315Z,29.00
2018-06-16T11:03:36.906Z,29.60
2018-06-16T11:06:05.464Z,29.90
2018-06-16T11:08:34.103Z,30.10
2018-06-16T11:11:02.664Z,30.70
2018-06-16T11:13:31.184Z,31.00
2018-06-16T11:18:28.059Z,30.80
2018-06-16T11:20:56.762Z,31.30
2018-06-16T11:23:25.326Z,31.30
2018-06-16T11:25:53.958Z,31.10
2018-06-16T11:28:22.758Z,30.80
2018-06-16T11:30:51.475Z,30.00
2018-06-16T11:35:48.232Z,29.30
2018-06-16T11:40:45.275Z,28.90
2018-06-16T11:43:13.843Z,28.90
2018-06-16T11:45:42.400Z,29.40
2018-06-16T11:48:11.004Z,29.50
2018-06-16T11:50:39.561Z,29.30
2018-06-16T11:53:08.306Z,28.60
2018-06-16T11:55:36.878Z,28.30
2018-06-16T11:58:06.728Z,28.30
2018-06-16T12:00:35.372Z,28.80
2018-06-16T12:03:03.975Z,29.20
2018-06-16T12:05:32.479Z,29.40
2018-06-16T12:08:01.024Z,29.60
2018-06-16T12:10:29.594Z,29.70
2018-06-16T12:12:58.117Z,29.40
2018-06-16T12:15:26.724Z,29.20
2018-06-16T12:17:55.348Z,28.90
2018-06-16T12:20:23.983Z,28.20
2018-06-16T12:22:52.455Z,28.50
2018-06-16T12:25:21.024Z,28.80
2018-06-16T12:27:49.570Z,29.10
2018-06-16T12:30:18.391Z,28.90
2018-06-16T12:32:46.971Z,28.40
2018-06-16T12:35:15.563Z,28.10
2018-06-16T12:37:44.123Z,27.80
2018-06-16T12:42:41.031Z,27.60
2018-06-16T12:45:09.568Z,27.60
2018-06-16T12:47:38.523Z,28.00
2018-06-16T12:50:07.179Z,28.60
2018-06-16T12:52:35.740Z,28.80
2018-06-16T13:00:01.613Z,27.50
2018-06-16T13:02:30.558Z,27.00
2018-06-16T13:07:27.643Z,27.00
2018-06-16T13:09:56.187Z,27.20
2018-06-16T13:12:25.169Z,27.70
2018-06-16T13:14:53.851Z,28.40
2018-06-16T13:17:22.561Z,28.80
2018-06-16T13:19:51.150Z,28.60
2018-06-16T13:22:19.728Z,28.80
2018-06-16T13:24:48.279Z,29.00
2018-06-16T13:27:16.966Z,28.70
2018-06-16T13:29:45.668Z,28.50
2018-06-16T13:32:14.179Z,28.10
2018-06-16T13:34:42.936Z,28.10
2018-06-16T13:37:11.518Z,28.20
2018-06-16T13:39:40.253Z,28.10
2018-06-16T13:42:08.850Z,28.20
2018-06-16T13:44:37.411Z,28.40
2018-06-16T13:49:34.251Z,27.80
2018-06-16T13:52:02.837Z,27.50
2018-06-16T13:54:31.396Z,27.90
2018-06-16T13:57:00.188Z,28.00
2018-06-16T13:59:29.087Z,28.00
2018-06-16T14:01:57.632Z,27.80
2018-06-16T14:04:26.247Z,27.90
2018-06-16T14:06:55.067Z,27.80
2018-06-16T14:11:51.847Z,28.10
2018-06-16T14:14:20.836Z,28.10
2018-06-16T14:16:49.382Z,28.10
2018-06-16T14:19:17.923Z,28.00
2018-06-16T14:21:46.750Z,27.90
2018-06-16T14:24:15.333Z,28.10
2018-06-16T14:26:44.097Z,28.00
2018-06-16T14:29:12.635Z,28.00
2018-06-16T14:31:41.178Z,27.70
2018-06-16T14:34:09.732Z,27.50
2018-06-16T14:36:38.351Z,27.20
2018-06-16T14:39:08.239Z,27.20
2018-06-16T14:41:37.023Z,26.90
2018-06-16T14:44:05.917Z,27.00
2018-06-16T14:46:34.614Z,27.10
2018-06-16T14:49:03.319Z,27.20
2018-06-16T14:51:32.016Z,27.00
2018-06-16T14:56:28.912Z,26.80
2018-06-16T14:58:57.424Z,26.80
2018-06-16T15:01:25.953Z,26.90
2018-06-16T15:03:54.654Z,27.00
2018-06-16T15:06:23.235Z,26.90
2018-06-16T15:08:52.103Z,26.80
2018-06-16T15:11:20.991Z,26.80
2018-06-16T15:13:49.750Z,26.80
2018-06-16T15:16:18.460Z,26.80
2018-06-16T15:18:47.052Z,26.80
2018-06-16T15:21:15.675Z,27.00
2018-06-16T15:23:44.249Z,27.30
2018-06-16T15:26:12.810Z,27.80
2018-06-16T15:28:41.763Z,28.20
2018-06-16T15:33:38.451Z,28.70
2018-06-16T15:36:07.124Z,28.70
2018-06-16T15:38:35.827Z,28.60
2018-06-16T15:41:04.668Z,28.60
2018-06-16T15:43:33.563Z,28.40
2018-06-16T15:46:02.108Z,27.90
2018-06-16T15:48:30.638Z,27.70
2018-06-16T15:50:59.240Z,27.60
2018-06-16T15:53:28.220Z,27.30
2018-06-16T15:55:56.731Z,27.00
2018-06-16T15:58:25.342Z,26.70
2018-06-16T16:00:53.847Z,26.60
2018-06-16T16:03:22.762Z,26.70
2018-06-16T16:05:51.452Z,26.60
2018-06-16T16:08:20.103Z,26.70
2018-06-16T16:10:48.671Z,26.90
2018-06-16T16:13:17.237Z,27.00
2018-06-16T16:15:45.756Z,26.90
2018-06-16T16:18:14.290Z,26.90
2018-06-16T16:20:42.930Z,26.90
2018-06-16T16:23:11.638Z,26.80
2018-06-16T16:25:40.244Z,26.70
2018-06-16T16:28:09.160Z,26.70
2018-06-16T16:30:37.859Z,26.70
2018-06-16T16:33:06.760Z,26.60
2018-06-16T16:35:35.481Z,26.50
2018-06-16T16:38:04.124Z,26.50
2018-06-16T16:40:32.683Z,26.60
2018-06-16T16:43:01.315Z,26.50
2018-06-16T16:45:29.888Z,26.40
2018-06-16T16:47:58.548Z,26.30
2018-06-16T16:50:27.308Z,26.10
2018-06-16T16:52:55.947Z,26.10
2018-06-16T16:55:24.591Z,26.20
2018-06-16T16:57:53.415Z,26.20
2018-06-16T17:00:22.090Z,26.20
2018-06-16T17:02:50.599Z,26.30
2018-06-16T17:05:19.133Z,26.40
2018-06-16T17:07:47.760Z,26.40
2018-06-16T17:10:16.301Z,26.30
2018-06-16T17:12:44.831Z,26.30
2018-06-16T17:15:13.623Z,26.30
2018-06-16T17:17:42.218Z,26.30
2018-06-16T17:20:10.838Z,26.40
2018-06-16T17:22:39.471Z,26.30
2018-06-16T17:25:08.098Z,26.30
2018-06-16T17:27:36.820Z,26.20
2018-06-16T17:30:05.659Z,25.80
2018-06-16T17:32:34.322Z,25.50
2018-06-16T17:35:02.919Z,25.30
2018-06-16T17:37:31.472Z,25.10
2018-06-16T17:40:00.038Z,24.80
2018-06-16T17:42:28.819Z,24.70
2018-06-16T17:44:57.479Z,24.60
2018-06-16T17:47:26.387Z,24.40
2018-06-16T17:49:55.383Z,24.20
2018-06-16T17:52:24.260Z,23.90
2018-06-16T17:54:53.315Z,23.20
2018-06-16T17:57:21.920Z,22.70
2018-06-16T17:59:50.559Z,22.20
2018-06-16T18:02:19.170Z,21.90
2018-06-16T18:04:48.099Z,21.60
2018-06-16T18:07:17.835Z,21.40
2018-06-16T18:09:46.536Z,21.20
2018-06-16T18:12:15.240Z,21.00
2018-06-16T18:14:43.970Z,20.80
2018-06-16T18:17:12.744Z,20.60
2018-06-16T18:19:41.443Z,20.50
2018-06-16T18:22:09.999Z,20.30
2018-06-16T18:24:38.591Z,20.30
2018-06-16T18:27:07.091Z,20.30
2018-06-16T18:29:35.664Z,20.30
2018-06-16T18:32:04.381Z,20.30
2018-06-16T18:34:33.308Z,20.20
2018-06-16T18:37:02.040Z,20.10
2018-06-16T18:39:30.715Z,20.00
2018-06-16T18:41:59.400Z,20.10
2018-06-16T18:44:28.141Z,20.10
2018-06-16T18:46:56.734Z,20.10
2018-06-16T18:49:25.478Z,20.20
2018-06-16T18:51:53.309Z,20.20
2018-06-16T18:54:21.113Z,20.20
2018-06-16T18:56:49.028Z,20.30
2018-06-16T18:59:16.901Z,20.30
2018-06-16T19:01:44.743Z,20.30
2018-06-16T19:04:12.545Z,20.20
2018-06-16T19:06:40.273Z,20.20
2018-06-16T19:09:08.858Z,20.20
2018-06-16T19:11:36.757Z,20.20
2018-06-16T19:14:05.552Z,20.20
2018-06-16T19:16:33.381Z,20.20
2018-06-16T19:19:01.217Z,20.20
2018-06-16T19:21:28.901Z,20.20
2018-06-16T19:23:56.747Z,20.10
2018-06-16T19:26:24.599Z,20.00
2018-06-16T19:28:52.526Z,19.90
2018-06-16T19:31:20.365Z,19.90
2018-06-16T19:33:48.179Z,19.90
2018-06-16T19:36:16.031Z,19.90
2018-06-16T19:38:43.886Z,19.90
2018-06-16T19:41:11.665Z,19.80
2018-06-16T19:43:39.519Z,19.80
2018-06-16T19:46:07.372Z,19.70
2018-06-16T19:48:35.974Z,19.60
2018-06-16T19:51:04.495Z,19.50
2018-06-16T19:53:33.189Z,19.30
2018-06-16T19:56:01.928Z,19.20
2018-06-16T19:58:30.559Z,19.10
2018-06-16T20:00:59.323Z,19.00
2018-06-16T20:03:28.026Z,18.80
2018-06-16T20:05:56.635Z,18.80
2018-06-16T20:08:25.201Z,18.70
2018-06-16T20:10:53.784Z,18.60
2018-06-16T20:13:22.487Z,18.60
2018-06-16T20:15:51.224Z,18.50
2018-06-16T20:18:19.875Z,18.40
2018-06-16T20:20:48.616Z,18.30
2018-06-16T20:23:17.468Z,18.30
2018-06-16T20:25:46.040Z,18.30
2018-06-16T20:28:14.666Z,18.30
2018-06-16T20:30:43.319Z,18.20
2018-06-16T20:33:11.920Z,18.30
2018-06-16T20:35:40.503Z,18.40
2018-06-16T20:38:09.151Z,18.40
2018-06-16T20:40:37.689Z,18.40
2018-06-16T20:43:06.359Z,18.50
2018-06-16T20:45:34.963Z,18.40
2018-06-16T20:48:03.851Z,18.50
2018-06-16T20:50:32.387Z,18.40
2018-06-16T20:53:00.944Z,18.40
2018-06-16T20:55:29.532Z,18.40
2018-06-16T20:57:58.261Z,18.30
2018-06-16T21:00:26.919Z,18.30
2018-06-16T21:02:55.491Z,18.30
2018-06-16T21:05:24.063Z,18.20
2018-06-16T21:07:52.827Z,18.20
2018-06-16T21:10:21.465Z,18.10
2018-06-16T21:12:50.383Z,18.00
2018-06-16T21:15:19.078Z,17.90
2018-06-16T21:17:47.671Z,17.80
2018-06-16T21:20:16.415Z,17.80
2018-06-16T21:22:45.019Z,17.70
2018-06-16T21:25:13.562Z,17.60
2018-06-16T21:27:42.272Z,17.40
2018-06-16T21:30:10.847Z,17.40
2018-06-16T21:32:39.730Z,17.30
2018-06-16T21:35:08.398Z,17.20
2018-06-16T21:37:37.045Z,17.10
2018-06-16T21:40:05.779Z,17.10
2018-06-16T21:42:35.072Z,17.00
2018-06-16T21:45:03.866Z,17.00
2018-06-16T21:47:32.451Z,17.00
2018-06-16T21:50:01.033Z,16.90
2018-06-16T21:52:29.618Z,16.90
2018-06-16T21:54:58.174Z,16.90
2018-06-16T21:57:26.692Z,16.80
2018-06-16T21:59:55.346Z,16.80
2018-06-16T22:02:23.947Z,16.70
2018-06-16T22:04:52.707Z,16.70
2018-06-16T22:07:21.327Z,16.70
2018-06-16T22:09:49.938Z,16.80
2018-06-16T22:12:18.547Z,16.80
2018-06-16T22:14:47.248Z,16.80
2018-06-16T22:17:15.952Z,16.80
2018-06-16T22:19:44.548Z,16.80
2018-06-16T22:22:13.062Z,16.90
2018-06-16T22:24:41.676Z,16.80
2018-06-16T22:27:10.198Z,16.80
2018-06-16T22:29:38.841Z,16.80
2018-06-16T22:32:07.402Z,16.70
2018-06-16T22:34:35.911Z,16.70
2018-06-16T22:37:04.698Z,16.70
2018-06-16T22:39:33.360Z,16.60
2018-06-16T22:42:01.984Z,16.60
2018-06-16T22:44:30.529Z,16.50
2018-06-16T22:46:59.116Z,16.40
2018-06-16T22:49:27.635Z,16.40
2018-06-16T22:51:56.159Z,16.30
2018-06-16T22:54:24.725Z,16.30
2018-06-16T22:56:53.278Z,16.30
2018-06-16T22:59:21.837Z,16.20
2018-06-16T23:01:51.140Z,16.20
2018-06-16T23:04:19.677Z,16.20
2018-06-16T23:06:48.497Z,16.20
2018-06-16T23:09:17.304Z,16.20
2018-06-16T23:11:46.049Z,16.10
2018-06-16T23:14:14.661Z,16.10
2018-06-16T23:16:43.252Z,16.10
2018-06-16T23:19:11.820Z,16.00
2018-06-16T23:21:40.362Z,16.00
2018-06-16T23:24:09.002Z,15.90
2018-06-16T23:26:37.546Z,15.90
2018-06-16T23:29:06.043Z,15.90
2018-06-16T23:31:34.607Z,15.80
2018-06-16T23:34:03.382Z,15.80
2018-06-16T23:36:31.963Z,15.80
2018-06-16T23:39:00.609Z,15.80
2018-06-16T23:41:29.302Z,15.70
2018-06-16T23:43:57.915Z,15.70
2018-06-16T23:46:26.466Z,15.70
2018-06-16T23:48:55.018Z,15.70
2018-06-16T23:51:23.511Z,15.70
2018-06-16T23:53:52.047Z,15.80
2018-06-16T23:56:20.542Z,15.80
2018-06-16T23:58:49.158Z,15.90
